Isla Vista, California
Current Conditions -  °F | °C
As of 5:53 PM on Saturday 20 Dec 2014 (Local Time) from KSBA Reporting Station
Clear Clear  
Wind Chill: 64°   Ceiling: Unl
Heat Index: 64°   Visibility: 10mi
Dew Point: 55°   Wind: 8mph
Humidity: 72%   Direction: 280°W
Pressure: 30.13"   Gusts: NA
Location:  34.4816°N, 119.966°W
Report Text: KSBA 210153Z 28007KT 10SM CLR 18/13 A3013 RMK AO2 SLP202 T01780128
Loading
Personal Weather Stations






























Interactive Weather Map New forecast layout! Learn more

10-Day Weather Forecast

Advertisements
Track Severe Weather on mobile